Time;durP1;ratioP1;P1;durP2;ratioP2;P2;SDS_P1;SDS_P2;PMS_P1;PMS_P2;Temp;Humidity;BMP_temperature;BMP_pressure;BME280_temperature;BME280_humidity;BME280_pressure;Samples;Min_cycle;Max_cycle;Signal;HPM_P1;HPM_P2
2022/11/24 00:02:19;;;;;;;47.60;43.40;;;;;;;0.64;95.67;96900.59;104715;1330;22245;-87
2022/11/24 00:04:47;;;;;;;46.40;42.20;;;;;;;0.71;95.73;96898.55;104870;1323;22189;-84
2022/11/24 00:07:15;;;;;;;47.80;43.30;;;;;;;0.76;95.44;96903.23;104960;1308;22905;-84
2022/11/24 00:09:43;;;;;;;41.10;37.30;;;;;;;0.80;95.36;96898.33;104838;1329;22302;-85
2022/11/24 00:12:11;;;;;;;40.60;36.90;;;;;;;0.79;95.24;96903.56;104784;1327;22116;-88
2022/11/24 00:14:39;;;;;;;42.90;38.80;;;;;;;0.79;95.51;96908.98;104641;1330;22968;-87
2022/11/24 00:17:07;;;;;;;37.60;34.10;;;;;;;0.79;95.30;96911.78;104626;1329;22267;-86
2022/11/24 00:19:35;;;;;;;41.10;37.00;;;;;;;0.78;95.28;96913.85;104532;1330;23007;-85
2022/11/24 00:22:03;;;;;;;37.20;33.60;;;;;;;0.83;95.50;96915.25;104593;1330;22102;-87
2022/11/24 00:24:31;;;;;;;41.40;37.70;;;;;;;0.88;95.20;96915.21;104780;1324;22079;-87
2022/11/24 00:26:59;;;;;;;44.40;40.40;;;;;;;0.88;95.12;96914.42;104755;1313;22163;-85
2022/11/24 00:29:27;;;;;;;47.40;43.10;;;;;;;0.87;95.05;96916.32;105062;1315;23123;-85
2022/11/24 00:31:55;;;;;;;45.50;41.20;;;;;;;0.82;94.87;96918.05;104950;1323;22211;-85
2022/11/24 00:34:23;;;;;;;48.70;44.00;;;;;;;0.76;94.92;96919.52;105054;1323;22079;-86
2022/11/24 00:36:51;;;;;;;46.10;41.90;;;;;;;0.72;94.88;96920.30;104992;1317;22877;-87
2022/11/24 00:39:19;;;;;;;42.70;38.70;;;;;;;0.73;95.20;96925.28;105042;1315;23063;-87
2022/11/24 00:41:47;;;;;;;40.20;36.40;;;;;;;0.76;95.01;96927.79;104754;1329;22676;-87
2022/11/24 00:44:15;;;;;;;42.10;38.10;;;;;;;0.78;94.77;96930.67;104935;1316;22190;-86
2022/11/24 00:46:43;;;;;;;45.30;41.40;;;;;;;0.77;94.71;96936.66;104657;1324;22117;-88
2022/11/24 00:49:11;;;;;;;47.10;42.70;;;;;;;0.73;94.72;96933.45;104794;1330;22269;-86
2022/11/24 00:51:39;;;;;;;50.60;45.90;;;;;;;0.67;94.64;96932.38;104684;1330;22210;-85
2022/11/24 00:54:07;;;;;;;47.70;43.20;;;;;;;0.62;94.68;96935.41;104954;1322;22143;-86
2022/11/24 00:56:35;;;;;;;41.90;38.00;;;;;;;0.58;94.57;96933.23;104737;1330;22183;-86
2022/11/24 00:59:03;;;;;;;41.00;36.90;;;;;;;0.58;94.74;96934.18;104638;1330;22132;-86
2022/11/24 01:01:31;;;;;;;38.60;35.00;;;;;;;0.65;94.72;96938.09;104637;1330;22200;-86
2022/11/24 01:04:00;;;;;;;39.50;35.50;;;;;;;0.67;94.73;96942.02;104664;1330;22199;-86
2022/11/24 01:06:29;;;;;;;43.30;39.10;;;;;;;0.64;94.48;96940.48;104563;1330;22264;-87
2022/11/24 01:08:57;;;;;;;43.40;39.10;;;;;;;0.60;94.35;96944.10;104673;1333;22201;-86
2022/11/24 01:11:27;;;;;;;41.60;37.50;;;;;;;0.54;94.43;96939.79;105073;1322;22292;-86
2022/11/24 01:13:57;;;;;;;38.80;35.10;;;;;;;0.54;94.49;96938.94;104891;1330;22066;-85
2022/11/24 01:16:29;;;;;;;39.20;35.40;;;;;;;0.58;94.86;96937.36;104735;1324;22285;-85
2022/11/24 01:18:57;;;;;;;39.60;35.40;;;;;;;0.66;94.69;96936.14;104843;1330;22193;-85
2022/11/24 01:21:25;;;;;;;42.90;38.40;;;;;;;0.68;94.69;96938.80;104781;1328;22298;-86
2022/11/24 01:23:52;;;;;;;41.60;37.50;;;;;;;0.71;95.08;96940.61;104720;1330;22094;-83
2022/11/24 01:26:21;;;;;;;44.60;40.10;;;;;;;0.74;95.05;96943.23;105098;1298;22186;-85
2022/11/24 01:28:55;;;;;;;43.50;39.20;;;;;;;0.77;94.78;96948.23;104820;1330;22208;-85
2022/11/24 01:31:24;;;;;;;41.20;37.00;;;;;;;0.82;95.08;96947.28;104918;1308;22740;-85
2022/11/24 01:33:53;;;;;;;42.40;38.10;;;;;;;0.86;94.76;96945.92;104568;1330;22118;-84
2022/11/24 01:36:22;;;;;;;39.00;35.00;;;;;;;0.94;94.69;96951.36;104623;1331;22244;-86
2022/11/24 01:38:50;;;;;;;40.90;36.80;;;;;;;0.97;94.47;96956.63;104816;1323;22157;-86
2022/11/24 01:41:23;;;;;;;38.70;34.80;;;;;;;0.91;94.23;96958.55;105084;1311;22198;-85
2022/11/24 01:43:52;;;;;;;45.20;40.70;;;;;;;0.83;93.91;96964.95;104553;1318;22096;-85
2022/11/24 01:46:31;;;;;;;42.50;38.30;;;;;;;0.81;94.74;96965.52;104808;1330;22266;-85
2022/11/24 01:49:11;;;;;;;36.90;33.20;;;;;;;0.83;94.67;96966.11;104801;1330;22927;-85
2022/11/24 01:51:49;;;;;;;35.90;32.10;;;;;;;0.88;94.78;96970.06;104643;1330;22281;-85
2022/11/24 01:54:21;;;;;;;34.70;31.20;;;;;;;0.90;94.46;96972.29;104924;1322;22202;-88
2022/11/24 01:56:54;;;;;;;34.60;31.30;;;;;;;0.86;94.12;96975.89;105063;1322;22195;-88
2022/11/24 01:59:22;;;;;;;36.00;32.60;;;;;;;0.80;94.03;96975.34;104901;1322;22114;-87
2022/11/24 02:01:52;;;;;;;34.80;31.20;;;;;;;0.73;94.00;96978.85;104629;1330;22198;-88
2022/11/24 02:04:25;;;;;;;33.60;30.00;;;;;;;0.65;94.00;96980.60;104543;1330;22223;-87
2022/11/24 02:06:58;;;;;;;31.70;28.40;;;;;;;0.61;94.08;96982.02;104541;1329;22205;-88
2022/11/24 02:09:38;;;;;;;34.20;26.90;;;;;;;0.60;94.27;96982.54;105048;1323;22649;-87
2022/11/24 02:12:06;;;;;;;33.60;30.20;;;;;;;0.63;94.40;96977.84;104659;1322;22221;-91
2022/11/24 02:14:36;;;;;;;33.40;29.90;;;;;;;0.68;94.53;96976.65;104632;1330;22227;-86
2022/11/24 02:17:04;;;;;;;36.50;31.70;;;;;;;0.68;94.19;96981.84;104623;1330;22229;-85
2022/11/24 02:19:35;;;;;;;33.70;30.40;;;;;;;0.66;94.10;96982.67;104925;1322;22278;-83
2022/11/24 02:22:03;;;;;;;32.70;28.70;;;;;;;0.61;94.06;96977.94;104786;1330;22253;-87
2022/11/24 02:24:46;;;;;;;30.80;27.40;;;;;;;0.59;94.27;96975.42;104918;1314;22083;-86
2022/11/24 02:27:14;;;;;;;30.50;27.40;;;;;;;0.62;94.36;96976.20;104637;1330;22843;-86
2022/11/24 02:29:42;;;;;;;31.10;27.90;;;;;;;0.65;94.22;96974.67;104554;1329;22102;-87
2022/11/24 02:32:11;;;;;;;30.30;27.50;;;;;;;0.65;94.10;96983.15;104675;1330;22905;-86
2022/11/24 02:34:39;;;;;;;30.30;27.00;;;;;;;0.65;94.23;96988.20;104604;1330;22092;-86
2022/11/24 02:37:07;;;;;;;30.10;27.10;;;;;;;0.66;94.28;96987.46;104537;1326;22077;-85
2022/11/24 02:39:35;;;;;;;30.10;27.20;;;;;;;0.65;94.36;96989.48;104974;1323;22130;-85
2022/11/24 02:42:08;;;;;;;32.40;29.20;;;;;;;0.65;94.49;96982.05;104780;1329;22923;-86
2022/11/24 02:44:45;;;;;;;35.30;31.80;;;;;;;0.69;94.50;96985.45;104697;1330;22243;-83
2022/11/24 02:47:13;;;;;;;32.70;29.40;;;;;;;0.74;94.37;96981.03;105134;1311;22238;-85
2022/11/24 02:49:41;;;;;;;35.60;32.00;;;;;;;0.80;94.58;96976.82;104946;1307;22115;-87
2022/11/24 02:52:09;;;;;;;35.20;31.70;;;;;;;0.83;94.33;96974.17;104781;1330;22081;-86
2022/11/24 02:54:37;;;;;;;35.20;31.60;;;;;;;0.82;94.23;96974.43;104806;1330;22159;-87
2022/11/24 02:57:05;;;;;;;33.30;30.00;;;;;;;0.83;94.33;96972.42;104603;1329;22311;-87
2022/11/24 02:59:33;;;;;;;36.50;32.30;;;;;;;0.84;94.36;96974.23;104606;1330;22191;-86
2022/11/24 03:02:01;;;;;;;32.20;28.70;;;;;;;0.86;94.25;96977.85;104780;1330;22820;-86
2022/11/24 03:04:29;;;;;;;34.00;30.50;;;;;;;0.86;94.09;96979.34;104801;1311;22215;-86
2022/11/24 03:06:57;;;;;;;34.00;30.60;;;;;;;0.93;94.45;96979.20;105057;1323;22161;-87
2022/11/24 03:09:25;;;;;;;32.50;29.20;;;;;;;0.97;94.08;96977.10;104787;1329;22285;-87
2022/11/24 03:11:53;;;;;;;34.30;30.90;;;;;;;0.99;94.34;96982.30;104812;1318;22715;-85
2022/11/24 03:14:21;;;;;;;32.80;29.40;;;;;;;1.03;94.49;96981.38;104807;1329;22106;-87
2022/11/24 03:16:49;;;;;;;33.60;30.30;;;;;;;1.06;94.51;96982.71;104784;1307;22298;-85
2022/11/24 03:19:17;;;;;;;32.60;29.10;;;;;;;1.06;94.23;96982.92;104773;1328;22224;-86
2022/11/24 03:21:45;;;;;;;32.70;29.60;;;;;;;1.10;94.22;96983.73;104829;1329;22213;-85
2022/11/24 03:24:13;;;;;;;30.70;27.60;;;;;;;1.15;94.18;96979.45;104767;1328;22114;-87
2022/11/24 03:26:41;;;;;;;31.80;28.50;;;;;;;1.20;93.96;96979.78;104663;1328;22268;-85
2022/11/24 03:29:09;;;;;;;30.20;27.30;;;;;;;1.18;93.40;96984.33;105073;1323;22336;-86
2022/11/24 03:31:37;;;;;;;30.90;27.70;;;;;;;1.16;93.64;96988.48;104740;1324;22097;-86
2022/11/24 03:34:05;;;;;;;32.80;29.50;;;;;;;1.17;94.02;96986.03;104642;1330;22380;-85
2022/11/24 03:36:33;;;;;;;32.90;29.60;;;;;;;1.20;94.19;96987.05;104836;1323;22294;-86
2022/11/24 03:39:01;;;;;;;33.40;29.80;;;;;;;1.17;93.71;96990.06;104636;1330;22154;-86
2022/11/24 03:41:29;;;;;;;31.60;28.50;;;;;;;1.10;93.42;96989.84;104728;1330;22228;-85
2022/11/24 03:43:57;;;;;;;33.30;29.90;;;;;;;1.07;92.95;96992.85;104690;1330;22197;-86
2022/11/24 03:46:25;;;;;;;29.60;26.70;;;;;;;1.05;93.10;96992.52;104892;1305;23008;-86
2022/11/24 03:48:53;;;;;;;31.80;28.70;;;;;;;1.00;93.29;96993.77;104962;1322;22271;-87
2022/11/24 03:51:21;;;;;;;32.00;28.70;;;;;;;0.96;93.45;96994.39;104796;1330;22148;-86
2022/11/24 03:53:49;;;;;;;33.30;29.90;;;;;;;0.94;93.48;96996.70;104848;1323;22257;-87
2022/11/24 03:56:17;;;;;;;33.40;29.90;;;;;;;0.93;93.76;96997.88;104812;1329;22085;-86
2022/11/24 03:58:45;;;;;;;30.50;27.30;;;;;;;0.96;93.85;97003.94;104663;1328;22357;-87
2022/11/24 04:01:13;;;;;;;31.10;27.90;;;;;;;0.99;93.66;97003.36;104730;1330;22143;-88
2022/11/24 04:03:41;;;;;;;32.30;29.00;;;;;;;1.00;93.20;97006.03;104728;1320;22394;-88
2022/11/24 04:06:09;;;;;;;34.90;31.30;;;;;;;1.00;93.30;97004.73;105039;1308;22073;-88
2022/11/24 04:08:37;;;;;;;35.20;31.70;;;;;;;0.99;93.38;97005.64;104873;1330;22232;-88
2022/11/24 04:11:06;;;;;;;37.00;32.90;;;;;;;1.02;93.64;97005.98;104979;1303;22216;-85
2022/11/24 04:13:33;;;;;;;37.00;33.40;;;;;;;1.00;93.61;97013.14;104958;1322;22250;-84
2022/11/24 04:16:04;;;;;;;36.00;32.30;;;;;;;0.98;93.21;97010.89;104790;1329;22193;-87
2022/11/24 04:18:32;;;;;;;37.50;33.70;;;;;;;0.94;93.05;97008.59;104713;1329;22180;-85
2022/11/24 04:21:00;;;;;;;39.90;35.80;;;;;;;0.92;93.21;97012.61;104813;1330;22270;-86
2022/11/24 04:23:28;;;;;;;39.30;35.40;;;;;;;0.92;93.35;97014.91;104855;1330;23541;-86
2022/11/24 04:25:56;;;;;;;37.80;34.00;;;;;;;0.91;93.65;97016.23;105084;1311;22848;-87
2022/11/24 04:28:24;;;;;;;39.90;35.90;;;;;;;0.90;93.40;97016.75;104788;1329;22781;-87
2022/11/24 04:30:52;;;;;;;34.20;30.40;;;;;;;0.87;93.48;97018.05;104561;1330;22217;-86
2022/11/24 04:33:20;;;;;;;35.80;30.40;;;;;;;0.82;93.13;97019.84;104798;1329;22187;-87
2022/11/24 04:35:52;;;;;;;34.90;29.10;;;;;;;0.76;93.09;97019.02;104557;1330;22842;-87
2022/11/24 04:38:20;;;;;;;36.20;29.20;;;;;;;0.75;93.11;97018.95;104804;1318;22267;-85
2022/11/24 04:41:08;;;;;;;37.40;33.30;;;;;;;0.66;93.09;97018.52;104749;1330;22235;-87
2022/11/24 04:43:36;;;;;;;37.90;33.80;;;;;;;0.55;93.20;97018.84;105076;1323;22076;-86
2022/11/24 04:46:09;;;;;;;39.10;33.90;;;;;;;0.47;93.44;97020.73;104759;1320;22166;-85
2022/11/24 04:48:37;;;;;;;37.90;31.40;;;;;;;0.47;93.45;97018.99;104823;1330;22236;-85
2022/11/24 04:51:06;;;;;;;38.00;33.20;;;;;;;0.49;93.47;97023.42;104883;1318;22230;-84
2022/11/24 04:53:34;;;;;;;35.50;31.60;;;;;;;0.51;93.43;97024.06;104772;1323;22215;-84
2022/11/24 04:56:05;;;;;;;39.90;34.40;;;;;;;0.51;93.42;97030.05;104806;1329;22101;-85
2022/11/24 04:58:33;;;;;;;41.00;33.70;;;;;;;0.52;93.58;97031.86;104849;1330;22154;-85
2022/11/24 05:01:06;;;;;;;35.80;31.90;;;;;;;0.53;93.70;97034.95;104851;1330;22158;-86
2022/11/24 05:03:36;;;;;;;38.70;32.50;;;;;;;0.52;93.63;97038.11;104541;1330;22300;-84
2022/11/24 05:06:04;;;;;;;36.90;32.90;;;;;;;0.50;93.55;97041.02;104523;1317;22246;-85
2022/11/24 05:08:32;;;;;;;42.50;35.50;;;;;;;0.49;93.51;97039.63;104923;1308;22525;-88
2022/11/24 05:11:05;;;;;;;42.40;37.90;;;;;;;0.49;93.68;97043.77;104792;1330;23023;-87
2022/11/24 05:13:32;;;;;;;41.60;36.80;;;;;;;0.50;93.58;97048.64;104654;1330;22809;-87
2022/11/24 05:16:01;;;;;;;46.10;41.20;;;;;;;0.49;93.90;97050.02;104539;1328;22257;-85
2022/11/24 05:18:29;;;;;;;44.30;39.60;;;;;;;0.48;93.84;97049.21;104593;1330;22274;-84
2022/11/24 05:20:57;;;;;;;51.60;46.00;;;;;;;0.50;93.99;97051.52;105077;1308;22085;-84
2022/11/24 05:23:26;;;;;;;47.30;41.30;;;;;;;0.53;93.77;97049.40;104665;1328;22854;-84
2022/11/24 05:25:58;;;;;;;34.80;31.00;;;;;;;0.55;93.87;97054.19;105063;1322;22237;-85
2022/11/24 05:28:27;;;;;;;47.00;40.70;;;;;;;0.55;93.84;97055.73;104542;1321;22199;-85
2022/11/24 05:31:02;;;;;;;53.30;43.10;;;;;;;0.55;94.29;97052.44;104529;1330;22986;-86
2022/11/24 05:33:32;;;;;;;50.80;45.00;;;;;;;0.53;94.53;97054.60;104675;1330;22256;-86
2022/11/24 05:36:02;;;;;;;46.80;41.60;;;;;;;0.52;94.55;97055.71;104516;1330;22889;-86
2022/11/24 05:38:31;;;;;;;39.60;35.40;;;;;;;0.49;94.43;97063.55;105065;1314;22157;-86
2022/11/24 05:41:00;;;;;;;40.40;36.10;;;;;;;0.50;94.64;97061.80;104784;1330;22331;-87
2022/11/24 05:43:29;;;;;;;42.40;37.90;;;;;;;0.48;94.48;97064.96;104533;1324;22922;-87
2022/11/24 05:46:00;;;;;;;43.90;39.10;;;;;;;0.49;94.50;97067.61;104852;1323;22150;-86
2022/11/24 05:48:28;;;;;;;48.40;43.10;;;;;;;0.47;94.73;97072.36;105044;1315;22146;-88
2022/11/24 05:50:57;;;;;;;52.40;45.30;;;;;;;0.42;94.96;97068.77;104788;1329;22114;-88
2022/11/24 05:53:25;;;;;;;53.60;45.60;;;;;;;0.39;94.89;97075.59;104547;1330;22207;-86
2022/11/24 05:55:53;;;;;;;48.30;43.00;;;;;;;0.40;94.93;97077.98;104973;1314;22071;-86
2022/11/24 05:58:21;;;;;;;65.20;52.10;;;;;;;0.40;95.02;97079.31;104667;1330;22080;-86
2022/11/24 06:00:49;;;;;;;72.60;57.80;;;;;;;0.42;94.80;97085.74;104824;1311;22167;-88
2022/11/24 06:03:17;;;;;;;68.30;56.80;;;;;;;0.46;95.05;97085.14;104590;1330;22221;-88
2022/11/24 06:05:46;;;;;;;91.20;53.90;;;;;;;0.46;95.17;97090.39;104828;1330;22237;-87
2022/11/24 06:08:14;;;;;;;125.50;62.70;;;;;;;0.40;95.39;97095.42;104805;1330;22260;-85
2022/11/24 06:10:42;;;;;;;50.10;44.30;;;;;;;0.35;95.28;97094.48;104798;1330;22849;-87
2022/11/24 06:13:10;;;;;;;52.50;44.20;;;;;;;0.34;95.20;97094.32;104818;1329;23404;-89
2022/11/24 06:15:39;;;;;;;60.70;49.70;;;;;;;0.34;95.56;97091.24;104804;1330;22208;-86
2022/11/24 06:18:07;;;;;;;46.50;41.40;;;;;;;0.32;95.86;97085.73;104534;1330;22206;-86
2022/11/24 06:20:35;;;;;;;51.20;44.40;;;;;;;0.26;95.82;97090.02;104667;1326;22215;-85
2022/11/24 06:23:03;;;;;;;51.90;46.50;;;;;;;0.21;96.11;97092.30;104531;1330;22131;-86
2022/11/24 06:25:31;;;;;;;49.20;42.40;;;;;;;0.17;96.04;97095.81;104627;1330;22216;-86
2022/11/24 06:28:02;;;;;;;53.30;47.70;;;;;;;0.17;96.02;97095.28;104873;1323;22189;-84
2022/11/24 06:30:31;;;;;;;53.30;46.80;;;;;;;0.20;96.05;97098.06;104677;1330;22887;-85
2022/11/24 06:32:59;;;;;;;60.70;54.00;;;;;;;0.24;96.10;97103.03;105051;1323;22151;-86
2022/11/24 06:35:27;;;;;;;59.10;51.40;;;;;;;0.23;96.32;97106.98;105096;1318;22844;-87
2022/11/24 06:37:55;;;;;;;89.40;71.00;;;;;;;0.20;96.57;97110.73;104781;1324;22184;-84
2022/11/24 06:40:23;;;;;;;75.30;67.20;;;;;;;0.19;96.81;97115.51;105058;1322;22186;-85
2022/11/24 06:42:51;;;;;;;64.50;57.50;;;;;;;0.18;96.76;97116.23;104980;1302;22960;-85
2022/11/24 06:45:19;;;;;;;67.50;60.40;;;;;;;0.21;96.72;97113.92;104570;1325;22199;-85
2022/11/24 06:47:47;;;;;;;56.60;50.60;;;;;;;0.24;96.94;97115.17;104545;1325;22723;-85
2022/11/24 06:50:15;;;;;;;58.40;52.40;;;;;;;0.25;97.20;97117.19;104948;1321;22220;-85
2022/11/24 06:52:43;;;;;;;59.20;51.20;;;;;;;0.25;97.19;97116.86;104562;1330;22894;-85
2022/11/24 06:55:11;;;;;;;52.00;45.80;;;;;;;0.23;97.45;97122.52;104561;1330;22859;-86
2022/11/24 06:57:39;;;;;;;57.00;48.30;;;;;;;0.21;97.69;97122.93;104911;1314;22659;-85
2022/11/24 07:00:08;;;;;;;48.30;43.30;;;;;;;0.20;97.67;97128.22;104658;1330;22245;-84
2022/11/24 07:02:36;;;;;;;48.00;43.10;;;;;;;0.22;97.94;97128.30;104627;1329;22217;-84
2022/11/24 07:05:13;;;;;;;56.70;50.50;;;;;;;0.25;98.27;97131.60;104675;1321;22117;-83
2022/11/24 07:07:41;;;;;;;54.10;47.70;;;;;;;0.23;98.09;97130.26;104640;1330;22890;-85
2022/11/24 07:10:09;;;;;;;59.60;51.20;;;;;;;0.23;97.88;97132.00;105054;1322;22191;-83
2022/11/24 07:12:37;;;;;;;52.80;46.60;;;;;;;0.26;98.00;97132.94;104759;1330;22163;-83
2022/11/24 07:15:05;;;;;;;49.60;42.40;;;;;;;0.30;98.05;97135.52;104897;1323;22183;-83
2022/11/24 07:17:38;;;;;;;46.70;41.90;;;;;;;0.31;98.32;97136.43;104930;1314;22104;-84
2022/11/24 07:20:07;;;;;;;49.60;43.40;;;;;;;0.33;98.35;97139.31;104473;1320;245540;-83
2022/11/24 07:22:35;;;;;;;55.00;47.90;;;;;;;0.34;98.66;97139.73;104767;1330;22284;-82
2022/11/24 07:25:06;;;;;;;50.30;44.80;;;;;;;0.29;98.63;97140.39;105104;1314;22122;-82
2022/11/24 07:27:34;;;;;;;50.00;44.80;;;;;;;0.27;98.63;97139.73;104766;1329;22226;-82
2022/11/24 07:30:03;;;;;;;49.10;43.80;;;;;;;0.30;99.00;97143.36;104753;1330;22180;-83
2022/11/24 07:32:31;;;;;;;53.60;47.90;;;;;;;0.31;98.97;97146.60;104661;1330;22279;-84
2022/11/24 07:34:59;;;;;;;65.90;49.90;;;;;;;0.30;99.28;97147.23;104769;1327;22227;-82
2022/11/24 07:37:28;;;;;;;62.40;54.00;;;;;;;0.29;99.18;97146.39;104969;1326;22246;-83
2022/11/24 07:39:58;;;;;;;55.10;47.80;;;;;;;0.29;99.33;97147.44;105123;1311;22185;-83
2022/11/24 07:42:27;;;;;;;59.00;51.90;;;;;;;0.30;99.62;97148.98;104868;1330;23216;-83
2022/11/24 07:44:55;;;;;;;54.00;48.10;;;;;;;0.30;99.34;97146.44;105094;1323;22208;-84
2022/11/24 07:47:23;;;;;;;60.70;52.30;;;;;;;0.34;99.19;97146.52;105110;1314;22059;-84
2022/11/24 07:49:51;;;;;;;60.30;53.70;;;;;;;0.40;99.11;97149.55;104791;1336;22269;-83
2022/11/24 07:52:18;;;;;;;60.80;53.30;;;;;;;0.43;99.27;97155.45;104739;1331;22205;-83
2022/11/24 07:54:46;;;;;;;59.90;49.80;;;;;;;0.42;99.33;97156.98;104782;1321;22132;-83
2022/11/24 07:57:14;;;;;;;54.00;48.30;;;;;;;0.43;99.93;97158.42;105189;1321;22221;-83
2022/11/24 07:59:42;;;;;;;52.00;46.60;;;;;;;0.41;100.00;97160.48;104775;1330;22185;-82
2022/11/24 08:02:12;;;;;;;50.40;44.70;;;;;;;0.38;99.91;97162.73;104658;1333;22249;-84
2022/11/24 08:04:40;;;;;;;52.10;46.50;;;;;;;0.38;99.92;97161.63;104961;1322;22217;-83
2022/11/24 08:07:08;;;;;;;52.30;46.80;;;;;;;0.39;99.99;97167.10;105029;1321;22997;-84
2022/11/24 08:09:36;;;;;;;51.90;46.60;;;;;;;0.37;100.00;97169.56;104873;1323;22818;-83
2022/11/24 08:12:04;;;;;;;45.00;39.70;;;;;;;0.35;100.00;97173.88;105124;1322;22074;-84
2022/11/24 08:14:32;;;;;;;42.70;38.20;;;;;;;0.30;100.00;97173.00;104838;1321;22110;-83
2022/11/24 08:17:04;;;;;;;41.50;37.20;;;;;;;0.33;99.97;97172.60;104843;1330;22252;-84
2022/11/24 08:19:33;;;;;;;40.60;36.20;;;;;;;0.36;99.98;97170.24;104947;1323;22127;-85
2022/11/24 08:22:01;;;;;;;37.10;33.40;;;;;;;0.37;100.00;97178.14;105119;1308;22188;-84
2022/11/24 08:24:30;;;;;;;38.00;34.10;;;;;;;0.35;100.00;97173.66;104803;1334;22143;-84
2022/11/24 08:26:58;;;;;;;36.00;32.30;;;;;;;0.41;99.96;97182.41;104668;1330;22129;-84
2022/11/24 08:29:28;;;;;;;36.00;32.10;;;;;;;0.43;99.98;97182.27;104632;1319;22135;-84
2022/11/24 08:31:56;;;;;;;35.30;31.60;;;;;;;0.49;99.99;97182.22;104648;1333;22231;-85
2022/11/24 08:34:24;;;;;;;37.40;33.40;;;;;;;0.48;100.00;97182.21;104615;1331;22221;-85
2022/11/24 08:36:53;;;;;;;35.60;31.90;;;;;;;0.49;99.95;97187.42;104665;1336;22874;-85
2022/11/24 08:39:21;;;;;;;34.80;31.10;;;;;;;0.50;99.94;97185.37;104569;1333;22205;-85
2022/11/24 08:41:49;;;;;;;36.60;32.70;;;;;;;0.53;99.92;97188.62;104792;1311;22188;-84
2022/11/24 08:44:17;;;;;;;36.60;32.80;;;;;;;0.57;99.84;97186.70;104762;1333;22263;-84
2022/11/24 08:46:45;;;;;;;32.80;29.10;;;;;;;0.61;99.84;97193.42;104705;1336;22372;-84
2022/11/24 08:49:13;;;;;;;36.10;32.30;;;;;;;0.62;99.97;97195.29;104597;1331;22174;-84
2022/11/24 08:51:42;;;;;;;36.60;32.70;;;;;;;0.57;99.97;97200.44;104777;1330;22144;-84
2022/11/24 08:54:12;;;;;;;34.40;30.90;;;;;;;0.56;99.97;97201.96;104774;1329;22206;-84
2022/11/24 08:56:41;;;;;;;37.30;31.70;;;;;;;0.59;99.93;97204.75;104641;1336;22919;-84
2022/11/24 08:59:12;;;;;;;35.30;31.80;;;;;;;0.56;99.90;97204.83;104550;1337;22190;-83
2022/11/24 09:01:40;;;;;;;38.40;34.20;;;;;;;0.56;99.96;97205.52;104775;1336;22212;-83
2022/11/24 09:04:08;;;;;;;36.30;32.60;;;;;;;0.52;99.99;97209.61;104640;1334;22160;-83
2022/11/24 09:06:36;;;;;;;37.50;33.80;;;;;;;0.53;100.00;97207.55;104942;1323;22233;-84
2022/11/24 09:09:04;;;;;;;36.10;32.50;;;;;;;0.57;99.90;97213.58;104747;1334;22205;-83
2022/11/24 09:11:33;;;;;;;40.20;36.30;;;;;;;0.61;99.96;97212.46;104751;1329;22811;-84
2022/11/24 09:14:02;;;;;;;41.10;37.10;;;;;;;0.62;99.96;97210.71;104607;1334;23008;-84
2022/11/24 09:16:30;;;;;;;41.50;37.20;;;;;;;0.60;99.95;97209.80;104831;1323;22332;-84
2022/11/24 09:19:01;;;;;;;40.30;35.50;;;;;;;0.59;99.81;97211.96;105010;1305;22200;-84
2022/11/24 09:21:32;;;;;;;41.20;37.00;;;;;;;0.62;99.86;97210.19;104747;1329;22255;-83
2022/11/24 09:24:01;;;;;;;46.80;42.20;;;;;;;0.66;99.84;97210.97;104778;1318;22228;-83
2022/11/24 09:26:31;;;;;;;48.70;43.80;;;;;;;0.71;99.92;97214.23;104681;1328;22749;-85
2022/11/24 09:29:01;;;;;;;54.90;49.40;;;;;;;0.66;99.90;97214.55;104629;1333;22189;-85
2022/11/24 09:31:35;;;;;;;60.80;54.50;;;;;;;0.63;99.82;97213.38;104521;1333;22194;-84
2022/11/24 09:34:04;;;;;;;62.30;56.30;;;;;;;0.62;99.90;97213.32;104561;1319;22591;-87
2022/11/24 09:36:34;;;;;;;46.00;41.70;;;;;;;0.62;99.90;97212.30;104817;1307;22082;-88
2022/11/24 09:39:02;;;;;;;43.20;39.20;;;;;;;0.60;99.87;97214.24;104716;1330;22897;-88
2022/11/24 09:41:39;;;;;;;45.30;40.80;;;;;;;0.54;99.98;97215.41;104580;1330;22237;-86
2022/11/24 09:44:23;;;;;;;43.70;39.50;;;;;;;0.50;99.94;97212.40;104756;1329;22962;-85
2022/11/24 09:47:02;;;;;;;51.50;46.60;;;;;;;0.49;99.90;97216.15;105092;1321;22262;-84
2022/11/24 09:49:54;;;;;;;53.20;48.30;;;;;;;0.51;100.00;97211.73;104777;1329;22262;-84
2022/11/24 09:52:40;;;;;;;58.00;52.50;;;;;;;0.46;100.00;97208.45;105052;1322;22191;-84
2022/11/24 09:55:27;;;;;;;47.80;43.40;;;;;;;0.38;100.00;97207.09;105126;1311;22207;-84
2022/11/24 09:58:29;;;;;;;43.70;39.70;;;;;;;0.41;100.00;97207.44;104813;1330;22296;-83
2022/11/24 10:00:58;;;;;;;45.40;41.20;;;;;;;0.40;100.00;97213.05;105053;1323;22133;-84
2022/11/24 10:03:38;;;;;;;48.90;44.40;;;;;;;0.38;100.00;97208.27;104776;1330;22772;-84
2022/11/24 10:06:26;;;;;;;48.00;43.50;;;;;;;0.34;100.00;97212.26;104660;1334;22912;-84
2022/11/24 10:09:14;;;;;;;52.60;47.80;;;;;;;0.32;100.00;97208.66;104794;1330;22736;-84
2022/11/24 10:11:57;;;;;;;48.70;44.30;;;;;;;0.32;100.00;97207.47;104745;1330;22206;-83
2022/11/24 10:14:28;;;;;;;49.20;44.70;;;;;;;0.34;100.00;97209.48;104549;1330;22270;-83
2022/11/24 10:17:16;;;;;;;51.60;46.90;;;;;;;0.33;100.00;97211.65;104766;1330;22093;-83
2022/11/24 10:20:09;;;;;;;47.90;43.60;;;;;;;0.31;100.00;97213.02;104515;1330;22218;-83
2022/11/24 10:22:50;;;;;;;47.80;43.70;;;;;;;0.29;100.00;97216.70;104912;1323;22252;-84
2022/11/24 10:25:28;;;;;;;48.50;44.10;;;;;;;0.28;100.00;97211.92;105049;1315;22907;-85
2022/11/24 10:28:08;;;;;;;55.60;50.70;;;;;;;0.26;100.00;97212.70;105131;1308;22082;-84
2022/11/24 10:30:37;;;;;;;56.40;51.30;;;;;;;0.29;100.00;97211.52;104632;1330;22079;-85
2022/11/24 10:33:20;;;;;;;54.60;49.70;;;;;;;0.25;100.00;97210.83;104798;1330;22891;-84
2022/11/24 10:36:08;;;;;;;60.50;54.90;;;;;;;0.25;100.00;97211.77;104872;1318;22153;-84
2022/11/24 10:38:44;;;;;;;52.70;48.00;;;;;;;0.26;100.00;97211.05;104541;1330;22150;-84
2022/11/24 10:41:34;;;;;;;60.40;55.10;;;;;;;0.29;100.00;97214.05;104639;1330;22232;-84
2022/11/24 10:44:02;;;;;;;62.20;56.50;;;;;;;0.25;100.00;97214.16;104761;1329;22800;-84
2022/11/24 10:46:30;;;;;;;57.00;51.90;;;;;;;0.22;100.00;97212.82;104663;1330;22205;-84
2022/11/24 10:49:06;;;;;;;60.20;54.80;;;;;;;0.23;100.00;97216.16;104752;1330;22130;-85
2022/11/24 10:51:47;;;;;;;60.40;55.10;;;;;;;0.22;100.00;97210.59;104508;1330;22215;-83
2022/11/24 10:54:22;;;;;;;62.70;57.00;;;;;;;0.26;100.00;97214.82;104721;1330;22979;-84
2022/11/24 10:56:53;;;;;;;60.00;54.50;;;;;;;0.25;100.00;97217.17;104618;1331;22196;-83
2022/11/24 10:59:23;;;;;;;63.40;57.30;;;;;;;0.24;100.00;97217.44;104798;1323;22181;-82
2022/11/24 11:01:52;;;;;;;66.10;59.90;;;;;;;0.26;100.00;97217.73;104745;1329;22260;-83
2022/11/24 11:04:26;;;;;;;67.70;61.40;;;;;;;0.29;100.00;97218.29;104882;1321;22166;-83
2022/11/24 11:07:18;;;;;;;71.70;65.00;;;;;;;0.29;100.00;97219.14;104773;1329;22029;-83
2022/11/24 11:09:47;;;;;;;78.70;71.10;;;;;;;0.31;100.00;97219.36;104677;1330;22270;-83
2022/11/24 11:12:42;;;;;;;167.90;95.00;;;;;;;0.28;100.00;97223.16;104556;1330;23041;-84
2022/11/24 11:15:28;;;;;;;159.80;96.20;;;;;;;0.26;100.00;97220.05;104614;1333;22797;-84
2022/11/24 11:17:59;;;;;;;;;;;;;;;0.29;100.00;97220.15;104548;1329;23053;-85
2022/11/24 11:20:31;;;;;;;80.40;72.40;;;;;;;0.27;100.00;97221.45;104616;1330;22260;-85
2022/11/24 11:23:02;;;;;;;71.20;64.20;;;;;;;0.25;100.00;97219.14;104518;1330;22257;-85
2022/11/24 11:25:33;;;;;;;69.00;62.50;;;;;;;0.23;100.00;97219.17;104564;1330;22337;-84
2022/11/24 11:28:30;;;;;;;65.90;59.40;;;;;;;0.22;100.00;97216.84;104731;1329;22936;-83
2022/11/24 11:30:58;;;;;;;71.40;64.90;;;;;;;0.25;100.00;97222.64;104643;1326;22229;-85
2022/11/24 11:34:09;;;;;;;73.40;66.60;;;;;;;0.27;100.00;97217.62;104340;1336;22115;-84